createdAt,value
2019-01-14T00:00:18.597Z,99.90
2019-01-14T00:02:47.122Z,99.90
2019-01-14T00:05:15.521Z,99.90
2019-01-14T00:07:43.911Z,99.90
2019-01-14T00:10:12.309Z,99.90
2019-01-14T00:12:40.705Z,99.90
2019-01-14T00:15:09.642Z,99.90
2019-01-14T00:17:38.025Z,99.90
2019-01-14T00:20:09.466Z,99.90
2019-01-14T00:22:37.861Z,99.90
2019-01-14T00:25:06.429Z,99.90
2019-01-14T00:27:34.864Z,99.90
2019-01-14T00:30:22.627Z,99.90
2019-01-14T00:32:51.391Z,99.90
2019-01-14T00:35:19.785Z,99.90
2019-01-14T00:37:48.175Z,99.90
2019-01-14T00:40:16.814Z,99.90
2019-01-14T00:42:45.969Z,99.90
2019-01-14T00:45:14.608Z,99.90
2019-01-14T00:47:43.012Z,99.90
2019-01-14T00:50:14.237Z,99.90
2019-01-14T00:52:43.173Z,99.90
2019-01-14T00:55:12.001Z,99.90
2019-01-14T00:57:40.408Z,99.90
2019-01-14T01:00:14.793Z,99.90
2019-01-14T01:02:43.177Z,99.90
2019-01-14T01:05:11.650Z,99.90
2019-01-14T01:07:40.034Z,99.90
2019-01-14T01:10:11.689Z,99.90
2019-01-14T01:12:41.253Z,99.90
2019-01-14T01:15:12.552Z,99.90
2019-01-14T01:17:41.013Z,99.90
2019-01-14T01:20:12.642Z,99.90
2019-01-14T01:22:41.297Z,99.90
2019-01-14T01:25:10.921Z,99.90
2019-01-14T01:27:39.308Z,99.90
2019-01-14T01:30:10.629Z,99.90
2019-01-14T01:32:39.002Z,99.90
2019-01-14T01:35:10.042Z,99.90
2019-01-14T01:37:38.429Z,99.90
2019-01-14T01:40:10.231Z,99.90
2019-01-14T01:42:38.629Z,99.90
2019-01-14T01:45:09.358Z,99.90
2019-01-14T01:47:37.762Z,99.90
2019-01-14T01:50:09.403Z,99.90
2019-01-14T01:52:37.785Z,99.90
2019-01-14T01:55:08.317Z,99.90
2019-01-14T01:57:36.949Z,99.90
2019-01-14T02:00:08.406Z,99.90
2019-01-14T02:02:36.810Z,99.90
2019-01-14T02:05:07.781Z,99.90
2019-01-14T02:07:36.189Z,99.90
2019-01-14T02:10:07.869Z,99.90
2019-01-14T02:12:36.265Z,99.90
2019-01-14T02:15:07.410Z,99.90
2019-01-14T02:17:35.806Z,99.90
2019-01-14T02:20:07.006Z,99.90
2019-01-14T02:22:35.395Z,99.90
2019-01-14T02:25:05.122Z,99.90
2019-01-14T02:27:33.509Z,99.90
2019-01-14T02:30:02.145Z,99.90
2019-01-14T02:32:30.530Z,99.90
2019-01-14T02:34:58.913Z,99.90
2019-01-14T02:37:27.305Z,99.90
2019-01-14T02:39:55.690Z,99.90
2019-01-14T02:42:24.397Z,99.90
2019-01-14T02:44:52.781Z,99.90
2019-01-14T02:47:21.167Z,99.90
2019-01-14T02:49:49.582Z,99.90
2019-01-14T02:52:17.964Z,99.90
2019-01-14T02:54:46.350Z,99.90
2019-01-14T02:57:14.751Z,99.90
2019-01-14T02:59:43.141Z,99.90
2019-01-14T03:02:11.545Z,99.90
2019-01-14T03:04:39.928Z,99.90
2019-01-14T03:07:09.310Z,99.90
2019-01-14T03:09:37.769Z,99.90
2019-01-14T03:12:06.169Z,99.90
2019-01-14T03:14:34.854Z,99.90
2019-01-14T03:17:03.302Z,99.90
2019-01-14T03:19:31.689Z,99.90
2019-01-14T03:22:00.093Z,99.90
2019-01-14T03:24:28.490Z,99.90
2019-01-14T03:26:56.878Z,99.90
2019-01-14T03:29:25.273Z,99.90
2019-01-14T03:31:53.675Z,99.90
2019-01-14T03:34:22.077Z,99.90
2019-01-14T03:36:50.487Z,99.90
2019-01-14T03:39:19.127Z,99.90
2019-01-14T03:41:47.505Z,99.90
2019-01-14T03:44:15.906Z,99.90
2019-01-14T03:46:44.289Z,99.90
2019-01-14T03:49:12.687Z,99.90
2019-01-14T03:51:41.073Z,99.90
2019-01-14T03:54:09.823Z,99.90
2019-01-14T03:56:38.226Z,99.90
2019-01-14T03:59:06.618Z,99.90
2019-01-14T04:01:35.004Z,99.90
2019-01-14T04:04:03.389Z,99.90
2019-01-14T04:06:31.788Z,99.90
2019-01-14T04:09:00.183Z,99.90
2019-01-14T04:11:28.579Z,99.90
2019-01-14T04:13:56.975Z,99.90
2019-01-14T04:16:25.359Z,99.90
2019-01-14T04:18:53.758Z,99.90
2019-01-14T04:21:22.145Z,99.90
2019-01-14T04:23:50.559Z,99.90
2019-01-14T04:26:18.930Z,99.90
2019-01-14T04:28:47.615Z,99.90
2019-01-14T04:31:16.023Z,99.90
2019-01-14T04:33:44.706Z,99.90
2019-01-14T04:36:13.089Z,99.90
2019-01-14T04:38:41.647Z,99.90
2019-01-14T04:41:10.096Z,99.90
2019-01-14T04:43:38.489Z,99.90
2019-01-14T04:46:06.886Z,99.90
2019-01-14T04:48:35.266Z,99.90
2019-01-14T04:51:03.745Z,99.90
2019-01-14T04:53:32.117Z,99.90
2019-01-14T04:56:00.828Z,99.90
2019-01-14T04:58:29.285Z,99.90
2019-01-14T05:00:57.669Z,99.90
2019-01-14T05:03:26.059Z,99.90
2019-01-14T05:05:54.657Z,99.90
2019-01-14T05:08:42.394Z,99.90
2019-01-14T05:11:10.796Z,99.90
2019-01-14T05:13:39.181Z,99.90
2019-01-14T05:16:07.582Z,99.90
2019-01-14T05:18:35.970Z,99.90
2019-01-14T05:21:04.445Z,99.90
2019-01-14T05:23:32.829Z,99.90
2019-01-14T05:26:01.217Z,99.90
2019-01-14T05:28:29.605Z,99.90
2019-01-14T05:30:58.010Z,99.90
2019-01-14T05:33:26.397Z,99.90
2019-01-14T05:35:54.793Z,99.90
2019-01-14T05:38:23.197Z,99.90
2019-01-14T05:40:51.573Z,99.90
2019-01-14T05:43:19.985Z,99.90
2019-01-14T05:45:48.371Z,99.90
2019-01-14T05:48:16.753Z,99.90
2019-01-14T05:50:45.153Z,99.90
2019-01-14T05:53:13.542Z,99.90
2019-01-14T05:55:41.926Z,99.90
2019-01-14T05:58:10.334Z,99.90
2019-01-14T06:00:40.379Z,99.90
2019-01-14T06:03:08.762Z,99.90
2019-01-14T06:05:37.146Z,99.90
2019-01-14T06:08:05.545Z,99.90
2019-01-14T06:10:34.003Z,99.90
2019-01-14T06:13:02.405Z,99.90
2019-01-14T06:15:30.792Z,99.90
2019-01-14T06:17:59.197Z,99.90
2019-01-14T06:20:29.396Z,99.90
2019-01-14T06:22:57.800Z,99.90
2019-01-14T06:25:26.203Z,99.90
2019-01-14T06:28:13.941Z,99.90
2019-01-14T06:30:42.325Z,99.90
2019-01-14T06:33:10.913Z,99.90
2019-01-14T06:35:39.309Z,99.90
2019-01-14T06:38:07.766Z,99.90
2019-01-14T06:40:36.237Z,99.90
2019-01-14T06:43:04.625Z,99.90
2019-01-14T06:45:34.450Z,99.90
2019-01-14T06:48:02.834Z,99.90
2019-01-14T06:50:31.234Z,99.90
2019-01-14T06:52:59.618Z,99.90
2019-01-14T06:55:28.018Z,99.90
2019-01-14T06:57:56.419Z,99.90
2019-01-14T07:00:31.866Z,99.90
2019-01-14T07:03:00.349Z,99.90
2019-01-14T07:05:28.733Z,99.90
2019-01-14T07:07:59.886Z,99.90
2019-01-14T07:10:28.280Z,99.90
2019-01-14T07:12:56.669Z,99.90
2019-01-14T07:15:25.065Z,99.90
2019-01-14T07:17:53.463Z,99.90
2019-01-14T07:20:21.930Z,99.90
2019-01-14T07:22:50.644Z,99.90
2019-01-14T07:25:19.046Z,99.90
2019-01-14T07:27:47.454Z,99.90
2019-01-14T07:30:18.296Z,99.90
2019-01-14T07:32:46.941Z,99.90
2019-01-14T07:35:15.673Z,99.90
2019-01-14T07:37:44.120Z,99.90
2019-01-14T07:40:14.859Z,99.90
2019-01-14T07:42:43.385Z,99.90
2019-01-14T07:45:13.913Z,99.90
2019-01-14T07:47:42.313Z,99.90
2019-01-14T07:50:13.637Z,99.90
2019-01-14T07:52:42.169Z,99.90
2019-01-14T07:55:10.637Z,99.90
2019-01-14T07:57:39.093Z,99.90
2019-01-14T08:00:16.045Z,99.90
2019-01-14T08:02:44.675Z,99.90
2019-01-14T08:05:13.243Z,99.90
2019-01-14T08:07:41.653Z,99.90
2019-01-14T08:10:10.105Z,99.90
2019-01-14T08:12:38.489Z,99.90
2019-01-14T08:15:10.514Z,99.90
2019-01-14T08:17:38.961Z,99.90
2019-01-14T08:20:09.590Z,99.90
2019-01-14T08:22:37.986Z,99.90
2019-01-14T08:25:11.793Z,99.90
2019-01-14T08:27:40.256Z,99.90
2019-01-14T08:30:12.138Z,99.90
2019-01-14T08:32:40.521Z,99.90
2019-01-14T08:35:09.157Z,99.90
2019-01-14T08:37:37.557Z,99.90
2019-01-14T08:40:08.791Z,99.90
2019-01-14T08:42:37.650Z,99.90
2019-01-14T08:45:07.877Z,99.90
2019-01-14T08:47:36.262Z,99.90
2019-01-14T08:50:08.402Z,99.90
2019-01-14T08:52:36.801Z,99.90
2019-01-14T08:55:05.842Z,99.90
2019-01-14T08:57:34.366Z,99.90
2019-01-14T09:00:04.391Z,99.90
2019-01-14T09:02:32.792Z,99.90
2019-01-14T09:05:01.185Z,99.90
2019-01-14T09:07:29.569Z,99.90
2019-01-14T09:09:57.969Z,99.90
2019-01-14T09:12:26.349Z,99.90
2019-01-14T09:14:54.750Z,99.90
2019-01-14T09:17:23.156Z,99.90
2019-01-14T09:19:51.533Z,99.90
2019-01-14T09:22:19.933Z,99.90
2019-01-14T09:24:48.331Z,99.90
2019-01-14T09:27:16.730Z,99.90
2019-01-14T09:29:45.117Z,99.90
2019-01-14T09:32:13.576Z,99.90
2019-01-14T09:34:42.341Z,99.90
2019-01-14T09:37:10.721Z,99.90
2019-01-14T09:39:39.113Z,99.90
2019-01-14T09:42:07.518Z,99.90
2019-01-14T09:44:35.898Z,99.90
2019-01-14T09:47:04.323Z,99.90
2019-01-14T09:49:32.701Z,99.90
2019-01-14T09:52:01.113Z,99.90
2019-01-14T09:54:29.521Z,99.90
2019-01-14T09:56:57.933Z,99.90
2019-01-14T09:59:26.318Z,99.90
2019-01-14T10:01:54.701Z,99.90
2019-01-14T10:04:23.105Z,99.90
2019-01-14T10:06:51.497Z,99.90
2019-01-14T10:09:19.885Z,99.90
2019-01-14T10:11:48.289Z,99.90
2019-01-14T10:14:16.676Z,99.90
2019-01-14T10:16:45.960Z,99.90
2019-01-14T10:19:14.406Z,99.90
2019-01-14T10:21:42.785Z,99.90
2019-01-14T10:24:11.185Z,99.90
2019-01-14T10:26:39.570Z,99.90
2019-01-14T10:29:07.981Z,99.90
2019-01-14T10:31:36.366Z,99.90
2019-01-14T10:34:04.749Z,99.90
2019-01-14T10:36:33.150Z,99.90
2019-01-14T10:39:01.559Z,99.80
2019-01-14T10:41:29.937Z,99.60
2019-01-14T10:43:58.325Z,99.30
2019-01-14T10:46:26.725Z,99.20
2019-01-14T10:48:55.118Z,99.50
2019-01-14T10:51:23.505Z,99.60
2019-01-14T10:53:51.911Z,99.50
2019-01-14T10:56:20.314Z,99.20
2019-01-14T10:58:48.689Z,99.30
2019-01-14T11:01:17.100Z,99.20
2019-01-14T11:03:45.487Z,99.00
2019-01-14T11:06:13.941Z,99.50
2019-01-14T11:08:42.337Z,99.40
2019-01-14T11:11:10.721Z,99.80
2019-01-14T11:13:39.130Z,99.80
2019-01-14T11:16:07.513Z,99.90
2019-01-14T11:18:35.897Z,99.90
2019-01-14T11:21:04.365Z,99.90
2019-01-14T11:23:32.752Z,99.90
2019-01-14T11:26:01.169Z,99.90
2019-01-14T11:28:29.553Z,99.90
2019-01-14T11:30:57.972Z,99.90
2019-01-14T11:33:26.369Z,99.60
2019-01-14T11:35:54.774Z,99.40
2019-01-14T11:38:40.584Z,99.40
2019-01-14T11:41:09.251Z,99.30
2019-01-14T11:43:37.665Z,99.20
2019-01-14T11:46:06.121Z,99.00
2019-01-14T11:48:34.505Z,99.00
2019-01-14T11:51:02.906Z,99.00
2019-01-14T11:53:31.293Z,98.90
2019-01-14T11:55:59.762Z,99.10
2019-01-14T11:58:28.150Z,99.20
2019-01-14T12:00:56.534Z,99.30
2019-01-14T12:03:24.930Z,99.30
2019-01-14T12:05:53.313Z,99.30
2019-01-14T12:08:21.699Z,99.30
2019-01-14T12:11:09.441Z,99.20
2019-01-14T12:13:37.844Z,98.90
2019-01-14T12:16:06.228Z,98.80
2019-01-14T12:18:34.663Z,98.30
2019-01-14T12:21:03.033Z,98.00
2019-01-14T12:23:31.442Z,97.10
2019-01-14T12:25:59.824Z,97.00
2019-01-14T12:28:28.213Z,96.50
2019-01-14T12:30:56.626Z,96.30
2019-01-14T12:33:25.073Z,96.20
2019-01-14T12:35:53.462Z,96.50
2019-01-14T12:38:21.858Z,96.80
2019-01-14T12:40:50.250Z,97.00
2019-01-14T12:43:20.145Z,97.40
2019-01-14T12:45:48.714Z,97.60
2019-01-14T12:48:17.437Z,97.70
2019-01-14T12:50:45.829Z,97.50
2019-01-14T12:53:14.269Z,97.00
2019-01-14T12:55:42.673Z,96.50
2019-01-14T12:58:11.058Z,96.20
2019-01-14T13:00:39.462Z,96.00
2019-01-14T13:03:07.845Z,96.20
2019-01-14T13:05:55.577Z,97.20
2019-01-14T13:08:23.966Z,99.00
2019-01-14T13:10:52.384Z,98.30
2019-01-14T13:13:21.048Z,99.50
2019-01-14T13:15:49.685Z,99.90
2019-01-14T13:18:18.058Z,99.90
2019-01-14T13:20:46.466Z,99.90
2019-01-14T13:23:14.945Z,99.90
2019-01-14T13:25:43.337Z,99.90
2019-01-14T13:28:11.758Z,99.90
2019-01-14T13:30:40.146Z,99.90
2019-01-14T13:33:08.529Z,99.90
2019-01-14T13:35:36.934Z,99.90
2019-01-14T13:38:05.313Z,99.90
2019-01-14T13:40:33.706Z,99.90
2019-01-14T13:43:02.109Z,99.90
2019-01-14T13:45:30.565Z,99.90
2019-01-14T13:47:58.965Z,99.90
2019-01-14T13:50:27.421Z,99.90
2019-01-14T13:52:55.957Z,99.90
2019-01-14T13:55:24.427Z,99.90
2019-01-14T13:57:52.887Z,99.90
2019-01-14T14:00:23.112Z,99.90
2019-01-14T14:02:51.745Z,99.90
2019-01-14T14:05:20.209Z,99.90
2019-01-14T14:07:48.705Z,99.90
2019-01-14T14:10:20.093Z,99.90
2019-01-14T14:12:48.830Z,99.90
2019-01-14T14:15:38.713Z,99.90
2019-01-14T14:18:07.193Z,99.90
2019-01-14T14:20:36.458Z,99.90
2019-01-14T14:23:05.234Z,99.90
2019-01-14T14:25:33.698Z,99.90
2019-01-14T14:28:02.085Z,99.90
2019-01-14T14:30:36.150Z,99.90
2019-01-14T14:33:04.821Z,99.90
2019-01-14T14:35:33.217Z,99.90
2019-01-14T14:38:01.758Z,99.90
2019-01-14T14:40:30.140Z,99.90
2019-01-14T14:42:58.543Z,99.90
2019-01-14T14:45:27.006Z,99.90
2019-01-14T14:47:55.389Z,99.90
2019-01-14T14:50:43.121Z,99.90
2019-01-14T14:53:11.515Z,99.90
2019-01-14T14:55:39.905Z,99.90
2019-01-14T14:58:08.357Z,99.90
2019-01-14T15:00:36.745Z,99.90
2019-01-14T15:03:05.562Z,99.90
2019-01-14T15:05:34.174Z,99.90
2019-01-14T15:08:02.561Z,99.90
2019-01-14T15:10:30.953Z,99.90
2019-01-14T15:12:59.419Z,99.90
2019-01-14T15:15:28.079Z,99.90
2019-01-14T15:17:56.461Z,99.90
2019-01-14T15:20:25.193Z,99.90
2019-01-14T15:22:53.649Z,99.90
2019-01-14T15:25:22.039Z,99.90
2019-01-14T15:27:50.454Z,99.90
2019-01-14T15:30:23.861Z,99.90
2019-01-14T15:32:52.253Z,99.90
2019-01-14T15:35:39.990Z,99.90
2019-01-14T15:38:08.389Z,99.90
2019-01-14T15:40:36.781Z,99.90
2019-01-14T15:43:05.171Z,99.90
2019-01-14T15:45:33.569Z,99.90
2019-01-14T15:48:01.954Z,99.90
2019-01-14T15:50:30.341Z,99.90
2019-01-14T15:52:58.741Z,99.90
2019-01-14T15:55:27.466Z,99.90
2019-01-14T15:57:56.020Z,99.90
2019-01-14T16:00:25.153Z,99.90
2019-01-14T16:02:53.604Z,99.90
2019-01-14T16:05:21.991Z,99.90
2019-01-14T16:07:50.458Z,99.90
2019-01-14T16:10:20.981Z,99.90
2019-01-14T16:12:49.462Z,99.90
2019-01-14T16:15:17.917Z,99.90
2019-01-14T16:17:46.667Z,99.90
2019-01-14T16:20:20.401Z,99.90
2019-01-14T16:22:50.248Z,99.90
2019-01-14T16:25:18.709Z,99.90
2019-01-14T16:27:47.094Z,99.90
2019-01-14T16:30:18.101Z,99.90
2019-01-14T16:32:46.555Z,99.90
2019-01-14T16:35:15.017Z,99.90
2019-01-14T16:37:49.036Z,99.90
2019-01-14T16:40:18.158Z,99.90
2019-01-14T16:42:47.002Z,99.90
2019-01-14T16:45:18.366Z,99.90
2019-01-14T16:47:46.832Z,99.90
2019-01-14T16:50:16.458Z,99.90
2019-01-14T16:52:45.109Z,99.90
2019-01-14T16:55:15.285Z,99.90
2019-01-14T16:57:43.678Z,99.90
2019-01-14T17:00:17.937Z,99.90
2019-01-14T17:02:46.597Z,99.90
2019-01-14T17:05:16.098Z,99.90
2019-01-14T17:07:44.561Z,99.90
2019-01-14T17:10:14.690Z,99.90
2019-01-14T17:12:43.153Z,99.90
2019-01-14T17:15:12.486Z,99.90
2019-01-14T17:17:40.873Z,99.90
2019-01-14T17:20:15.113Z,99.90
2019-01-14T17:22:43.517Z,99.90
2019-01-14T17:25:12.001Z,99.90
2019-01-14T17:27:40.390Z,99.90
2019-01-14T17:30:14.486Z,99.90
2019-01-14T17:32:42.941Z,99.90
2019-01-14T17:35:11.408Z,99.90
2019-01-14T17:37:39.865Z,99.90
2019-01-14T17:40:11.315Z,99.90
2019-01-14T17:42:39.805Z,99.90
2019-01-14T17:45:09.760Z,99.90
2019-01-14T17:47:38.810Z,99.90
2019-01-14T17:50:10.121Z,99.90
2019-01-14T17:52:38.505Z,99.90
2019-01-14T17:55:07.925Z,99.90
2019-01-14T17:57:36.325Z,99.90
2019-01-14T18:00:08.077Z,99.90
2019-01-14T18:02:36.485Z,99.90
2019-01-14T18:05:06.325Z,99.90
2019-01-14T18:07:34.709Z,99.90
2019-01-14T18:10:04.273Z,99.90
2019-01-14T18:12:32.665Z,99.90
2019-01-14T18:15:01.057Z,99.90
2019-01-14T18:17:29.448Z,99.90
2019-01-14T18:19:57.846Z,99.90
2019-01-14T18:22:26.229Z,99.90
2019-01-14T18:24:54.616Z,99.90
2019-01-14T18:27:23.023Z,99.90
2019-01-14T18:29:51.405Z,99.90
2019-01-14T18:32:20.105Z,99.90
2019-01-14T18:34:48.485Z,99.90
2019-01-14T18:37:16.885Z,99.90
2019-01-14T18:39:45.541Z,99.90
2019-01-14T18:42:14.137Z,99.90
2019-01-14T18:44:42.491Z,99.90
2019-01-14T18:47:10.885Z,99.90
2019-01-14T18:49:39.275Z,99.90
2019-01-14T18:52:07.678Z,99.90
2019-01-14T18:54:36.063Z,99.90
2019-01-14T18:57:04.533Z,99.90
2019-01-14T18:59:32.913Z,99.90
2019-01-14T19:02:01.298Z,99.90
2019-01-14T19:04:29.697Z,99.90
2019-01-14T19:06:58.093Z,99.90
2019-01-14T19:09:26.497Z,99.90
2019-01-14T19:11:54.881Z,99.90
2019-01-14T19:14:23.279Z,99.90
2019-01-14T19:16:51.665Z,99.90
2019-01-14T19:19:20.045Z,99.90
2019-01-14T19:21:48.449Z,99.90
2019-01-14T19:24:16.835Z,99.90
2019-01-14T19:26:45.223Z,99.90
2019-01-14T19:29:13.617Z,99.90
2019-01-14T19:31:42.001Z,99.90
2019-01-14T19:34:10.406Z,99.90
2019-01-14T19:36:38.789Z,99.90
2019-01-14T19:39:08.790Z,99.90
2019-01-14T19:41:37.199Z,99.90
2019-01-14T19:44:05.585Z,99.90
2019-01-14T19:46:33.966Z,99.90
2019-01-14T19:49:02.377Z,99.90
2019-01-14T19:51:30.762Z,99.90
2019-01-14T19:53:59.161Z,99.90
2019-01-14T19:56:27.546Z,99.90
2019-01-14T19:58:55.938Z,99.90
2019-01-14T20:01:24.337Z,99.90
2019-01-14T20:03:52.725Z,99.90
2019-01-14T20:06:21.352Z,99.90
2019-01-14T20:08:49.734Z,99.90
2019-01-14T20:11:18.117Z,99.90
2019-01-14T20:13:46.516Z,99.90
2019-01-14T20:16:14.916Z,99.90
2019-01-14T20:18:43.660Z,99.90
2019-01-14T20:21:12.085Z,99.90
2019-01-14T20:23:40.485Z,99.90
2019-01-14T20:26:09.077Z,99.90
2019-01-14T20:28:37.465Z,99.90
2019-01-14T20:31:05.877Z,99.90
2019-01-14T20:33:34.249Z,99.90
2019-01-14T20:36:02.653Z,99.90
2019-01-14T20:38:32.210Z,99.90
2019-01-14T20:41:00.810Z,99.90
2019-01-14T20:43:29.216Z,99.90
2019-01-14T20:45:57.605Z,99.90
2019-01-14T20:48:26.008Z,99.90
2019-01-14T20:50:54.697Z,99.90
2019-01-14T20:53:23.078Z,99.90
2019-01-14T20:55:51.537Z,99.90
2019-01-14T20:58:19.931Z,99.90
2019-01-14T21:00:48.622Z,99.90
2019-01-14T21:03:17.029Z,99.90
2019-01-14T21:05:45.483Z,99.90
2019-01-14T21:08:14.017Z,99.90
2019-01-14T21:10:42.417Z,99.90
2019-01-14T21:13:10.822Z,99.90
2019-01-14T21:15:39.212Z,99.90
2019-01-14T21:18:07.599Z,99.90
2019-01-14T21:20:35.997Z,99.90
2019-01-14T21:23:04.401Z,99.90
2019-01-14T21:25:32.789Z,99.90
2019-01-14T21:28:01.177Z,99.90
2019-01-14T21:30:29.599Z,99.90
2019-01-14T21:32:57.978Z,99.90
2019-01-14T21:35:26.370Z,99.90
2019-01-14T21:37:54.773Z,99.90
2019-01-14T21:40:23.178Z,99.90
2019-01-14T21:42:51.585Z,99.90
2019-01-14T21:45:19.972Z,99.90
2019-01-14T21:47:48.349Z,99.90
2019-01-14T21:50:20.692Z,99.90
2019-01-14T21:52:49.101Z,99.90
2019-01-14T21:55:19.888Z,99.90
2019-01-14T21:57:48.274Z,99.90
2019-01-14T22:00:18.715Z,99.90
2019-01-14T22:02:47.377Z,99.90
2019-01-14T22:05:16.125Z,99.90
2019-01-14T22:07:44.513Z,99.90
2019-01-14T22:10:18.374Z,99.90
2019-01-14T22:12:46.968Z,99.90
2019-01-14T22:15:15.893Z,99.90
2019-01-14T22:17:44.277Z,99.90
2019-01-14T22:20:23.817Z,99.90
2019-01-14T22:22:52.286Z,99.90
2019-01-14T22:25:20.684Z,99.90
2019-01-14T22:27:49.092Z,99.90
2019-01-14T22:30:20.120Z,99.90
2019-01-14T22:32:48.509Z,99.90
2019-01-14T22:35:16.993Z,99.90
2019-01-14T22:37:45.453Z,99.90
2019-01-14T22:40:14.881Z,99.90
2019-01-14T22:42:43.354Z,99.90
2019-01-14T22:45:13.080Z,99.90
2019-01-14T22:47:41.474Z,99.90
2019-01-14T22:50:17.740Z,99.90
2019-01-14T22:52:46.128Z,99.90
2019-01-14T22:55:14.602Z,99.90
2019-01-14T22:57:43.069Z,99.90
2019-01-14T23:00:47.030Z,99.90
2019-01-14T23:03:15.473Z,99.90
2019-01-14T23:05:43.872Z,99.90
2019-01-14T23:08:13.110Z,99.90
2019-01-14T23:10:41.556Z,99.90
2019-01-14T23:13:09.940Z,99.90
2019-01-14T23:15:38.336Z,99.90
2019-01-14T23:18:06.752Z,99.90
2019-01-14T23:20:35.141Z,99.90
2019-01-14T23:23:03.592Z,99.90
2019-01-14T23:25:31.993Z,99.90
2019-01-14T23:28:00.386Z,99.90
2019-01-14T23:30:28.769Z,99.90
2019-01-14T23:32:57.174Z,99.90
2019-01-14T23:35:25.561Z,99.90
2019-01-14T23:37:53.944Z,99.90
2019-01-14T23:40:22.434Z,99.90
2019-01-14T23:42:50.868Z,99.90
2019-01-14T23:45:19.549Z,99.90
2019-01-14T23:47:47.941Z,99.90
2019-01-14T23:50:16.367Z,99.90
2019-01-14T23:52:44.833Z,99.90
2019-01-14T23:55:13.302Z,99.90
2019-01-14T23:57:41.716Z,99.90
